Time;durP1;ratioP1;P1;durP2;ratioP2;P2;SDS_P1;SDS_P2;PMS_P1;PMS_P2;Temp;Humidity;BMP_temperature;BMP_pressure;BME280_temperature;BME280_humidity;BME280_pressure;Samples;Min_cycle;Max_cycle;Signal;HPM_P1;HPM_P2
2022/11/06 00:01:06;;;;;;;23.27;7.05;;;25.70;26.80;;;;;;5109870;28;20045;-60
2022/11/06 00:03:34;;;;;;;24.80;6.95;;;25.70;27.30;;;;;;5123819;27;20054;-58
2022/11/06 00:08:45;;;;;;;25.48;8.15;;;25.80;26.70;;;;;;5110385;28;20058;-62
2022/11/06 00:11:14;;;;;;;31.88;7.97;;;25.70;46.00;;;;;;5111161;28;20491;-60
2022/11/06 00:13:41;;;;;;;26.70;8.07;;;25.70;48.00;;;;;;5110385;28;20027;-62
2022/11/06 00:16:09;;;;;;;28.92;7.10;;;25.30;29.10;;;;;;5110666;28;20069;-62
2022/11/06 00:18:37;;;;;;;32.58;6.85;;;25.20;27.60;;;;;;5111457;28;20089;-62
2022/11/06 00:21:17;;;;;;;37.38;7.40;;;24.90;50.50;;;;;;5110516;28;20052;-60
2022/11/06 00:23:45;;;;;;;29.33;7.10;;;24.80;51.70;;;;;;5122239;27;20159;-62
2022/11/06 00:26:15;;;;;;;31.25;7.15;;;24.70;28.10;;;;;;5108700;28;20031;-59
2022/11/06 00:28:43;;;;;;;37.22;6.85;;;24.70;51.40;;;;;;5112640;27;20053;-62
2022/11/06 00:31:12;;;;;;;34.42;6.10;;;24.40;28.70;;;;;;5110065;27;20123;-60
2022/11/06 00:33:39;;;;;;;34.00;8.10;;;24.30;32.40;;;;;;5110544;27;20122;-61
2022/11/06 00:36:09;;;;;;;28.38;7.35;;;23.70;47.50;;;;;;5110048;28;20057;-63
2022/11/06 00:38:36;;;;;;;39.22;8.52;;;24.00;29.40;;;;;;5111095;27;20053;-60
2022/11/06 00:41:08;;;;;;;40.92;9.10;;;24.00;29.60;;;;;;5113457;27;20140;-62
2022/11/06 00:43:35;;;;;;;28.65;9.15;;;23.80;29.80;;;;;;5123970;27;20176;-60
2022/11/06 00:46:02;;;;;;;36.72;10.32;;;23.70;30.00;;;;;;5110598;28;20498;-59
2022/11/06 00:48:28;;;;;;;37.67;9.70;;;23.60;31.00;;;;;;5110962;27;20437;-59
2022/11/06 00:50:55;;;;;;;52.40;12.57;;;23.70;54.10;;;;;;5110411;28;20091;-58
2022/11/06 00:53:21;;;;;;;62.15;11.38;;;23.40;31.30;;;;;;5110925;28;20061;-63
2022/11/06 00:55:47;;;;;;;36.65;11.40;;;23.40;31.30;;;;;;5106443;28;20076;-62
2022/11/06 00:58:14;;;;;;;47.53;13.00;;;23.10;31.10;;;;;;5105086;28;20080;-58
2022/11/06 01:00:40;;;;;;;33.63;10.15;;;23.00;31.60;;;;;;5107353;27;20064;-62
2022/11/06 01:03:06;;;;;;;33.90;11.05;;;22.90;31.90;;;;;;5102389;28;20084;-58
2022/11/06 01:05:33;;;;;;;41.90;11.00;;;22.80;31.80;;;;;;5106600;28;20060;-61
2022/11/06 01:07:59;;;;;;;37.72;9.60;;;22.70;32.10;;;;;;5110451;28;20433;-57
2022/11/06 01:10:25;;;;;;;27.45;7.88;;;22.60;32.30;;;;;;5109449;28;20078;-62
2022/11/06 01:12:52;;;;;;;37.33;8.45;;;22.40;32.40;;;;;;5109898;28;20083;-61
2022/11/06 01:15:18;;;;;;;31.98;7.03;;;22.30;32.50;;;;;;5109815;28;20173;-61
2022/11/06 01:17:44;;;;;;;28.73;7.90;;;22.20;32.70;;;;;;5115100;27;20079;-60
2022/11/06 01:20:11;;;;;;;41.10;8.68;;;22.10;33.10;;;;;;5110553;28;20076;-61
2022/11/06 01:22:37;;;;;;;34.25;8.65;;;22.00;33.40;;;;;;5120408;27;20108;-58
2022/11/06 01:25:04;;;;;;;39.50;9.48;;;21.90;33.50;;;;;;5109863;28;20151;-58
2022/11/06 01:27:31;;;;;;;64.75;20.30;;;21.70;33.70;;;;;;5107880;28;20431;-62
2022/11/06 01:29:57;;;;;;;42.55;9.32;;;21.60;34.30;;;;;;5109422;28;20193;-61
2022/11/06 01:32:23;;;;;;;50.25;9.80;;;21.50;33.80;;;;;;5114711;28;20070;-60
2022/11/06 01:34:51;;;;;;;39.78;8.90;;;21.40;33.90;;;;;;5116834;27;20072;-62
2022/11/06 01:37:17;;;;;;;44.63;9.02;;;21.50;53.60;;;;;;5118499;27;20408;-60
2022/11/06 01:39:43;;;;;;;35.13;10.43;;;21.40;55.90;;;;;;5113043;27;20383;-56
2022/11/06 01:42:20;;;;;;;37.65;9.23;;;21.20;55.10;;;;;;5113073;28;20050;-62
2022/11/06 01:45:22;;;;;;;52.92;11.55;;;21.00;53.30;;;;;;5118597;27;20111;-63
2022/11/06 01:47:48;;;;;;;29.15;8.90;;;21.20;34.50;;;;;;5113585;28;20057;-57
2022/11/06 01:50:17;;;;;;;42.03;8.98;;;21.00;34.80;;;;;;5113773;27;20065;-60
2022/11/06 01:52:45;;;;;;;51.22;13.07;;;21.00;35.20;;;;;;5113751;28;20544;-62
2022/11/06 01:55:20;;;;;;;32.25;10.88;;;20.90;35.00;;;;;;5124775;27;20078;-57
2022/11/06 01:57:47;;;;;;;58.05;11.35;;;20.80;35.50;;;;;;5113226;27;20176;-57
2022/11/06 02:00:14;;;;;;;42.17;9.82;;;20.80;35.70;;;;;;5114217;27;20070;-61
2022/11/06 02:02:41;;;;;;;40.40;10.13;;;20.70;35.70;;;;;;5113225;27;20087;-59
2022/11/06 02:05:08;;;;;;;58.90;11.40;;;20.60;35.80;;;;;;5112570;27;20321;-57
2022/11/06 02:07:35;;;;;;;49.22;10.82;;;20.40;35.70;;;;;;5113040;27;20098;-57
2022/11/06 02:10:02;;;;;;;37.17;10.15;;;20.40;36.00;;;;;;5113075;27;20065;-57
2022/11/06 02:12:29;;;;;;;41.22;10.35;;;20.30;36.00;;;;;;5113505;28;20147;-61
2022/11/06 02:15:15;;;;;;;55.00;9.38;;;20.30;36.00;;;;;;5114006;28;20091;-61
2022/11/06 02:17:57;;;;;;;50.85;9.93;;;20.20;36.20;;;;;;5113535;27;20068;-58
2022/11/06 02:20:35;;;;;;;54.55;10.15;;;20.10;36.00;;;;;;5112695;28;20075;-61
2022/11/06 02:23:26;;;;;;;59.40;11.15;;;20.00;36.50;;;;;;5115219;27;20556;-62
2022/11/06 02:25:55;;;;;;;69.15;9.90;;;20.00;36.70;;;;;;5112616;28;20115;-62
2022/11/06 02:28:51;;;;;;;53.80;8.70;;;19.90;36.80;;;;;;5111908;28;20084;-61
2022/11/06 02:31:27;;;;;;;53.08;10.40;;;19.90;37.20;;;;;;5117255;27;20076;-59
2022/11/06 02:34:05;;;;;;;61.63;11.37;;;19.80;37.30;;;;;;5117021;27;20128;-60
2022/11/06 02:36:39;;;;;;;61.10;13.13;;;19.70;37.60;;;;;;5112717;27;20079;-58
2022/11/06 02:39:10;;;;;;;45.85;12.38;;;19.60;37.80;;;;;;5112165;27;20596;-57
2022/11/06 02:41:41;;;;;;;63.88;12.82;;;19.60;38.40;;;;;;5112829;28;20125;-61
2022/11/06 02:44:12;;;;;;;59.35;12.90;;;19.60;39.70;;;;;;5114781;27;20095;-61
2022/11/06 02:46:48;;;;;;;56.10;12.85;;;19.50;38.90;;;;;;5111230;27;20091;-55
2022/11/06 02:49:18;;;;;;;64.88;14.30;;;19.40;39.30;;;;;;5113310;27;20096;-59
2022/11/06 02:51:55;;;;;;;56.78;14.10;;;19.30;39.40;;;;;;5111970;28;20523;-58
2022/11/06 02:54:23;;;;;;;67.07;14.32;;;19.30;40.20;;;;;;5112814;27;20212;-61
2022/11/06 02:56:51;;;;;;;67.25;16.25;;;19.20;39.50;;;;;;5111765;28;20151;-63
2022/11/06 02:59:24;;;;;;;60.45;15.85;;;19.20;39.60;;;;;;5115629;27;20087;-62
2022/11/06 03:02:03;;;;;;;61.40;15.30;;;19.20;39.20;;;;;;5110898;28;20101;-60
2022/11/06 03:04:38;;;;;;;68.22;13.52;;;19.20;39.30;;;;;;5110981;28;20673;-62
2022/11/06 03:07:19;;;;;;;58.60;14.93;;;19.10;39.60;;;;;;5116155;27;20453;-61
2022/11/06 03:09:47;;;;;;;63.28;15.10;;;18.60;60.90;;;;;;5121445;27;20087;-62
2022/11/06 03:12:31;;;;;;;68.97;15.25;;;18.70;69.10;;;;;;5111625;27;20125;-60
2022/11/06 03:15:17;;;;;;;68.35;15.52;;;18.70;47.90;;;;;;5110863;28;20445;-62
2022/11/06 03:17:47;;;;;;;72.07;19.35;;;;;;;;;;5111673;28;20042;-62
2022/11/06 03:20:22;;;;;;;71.07;21.10;;;18.60;55.20;;;;;;5111839;27;20512;-62
2022/11/06 03:22:53;;;;;;;67.30;17.23;;;;;;;;;;5110728;27;20163;-57
2022/11/06 03:25:22;;;;;;;64.38;16.88;;;;;;;;;;5111860;28;20023;-63
2022/11/06 03:28:01;;;;;;;73.35;15.48;;;18.60;44.40;;;;;;5110237;28;20492;-61
2022/11/06 03:30:28;;;;;;;55.92;14.88;;;;;;;;;;5110782;28;20049;-62
2022/11/06 03:33:16;;;;;;;61.33;15.43;;;18.50;44.60;;;;;;5111732;28;20496;-62
2022/11/06 03:36:14;;;;;;;73.97;16.58;;;18.60;51.00;;;;;;5111050;28;20030;-60
2022/11/06 03:38:50;;;;;;;70.43;16.67;;;18.00;53.60;;;;;;5068947;28;20043;-62
2022/11/06 03:41:22;;;;;;;60.97;17.30;;;;;;;;;;5068271;28;20033;-62
2022/11/06 03:43:51;;;;;;;59.03;16.30;;;18.40;49.20;;;;;;5069081;28;20108;-58
2022/11/06 03:46:23;;;;;;;54.55;15.68;;;18.20;47.20;;;;;;5068930;28;20178;-60
2022/11/06 03:48:56;;;;;;;57.72;13.38;;;18.10;51.60;;;;;;5078404;28;20153;-59
2022/11/06 03:51:35;;;;;;;58.60;13.45;;;18.30;52.80;;;;;;5069219;28;20068;-59
2022/11/06 03:54:16;;;;;;;63.42;16.48;;;18.30;57.40;;;;;;5068425;28;20024;-60
2022/11/06 03:56:58;;;;;;;52.63;15.65;;;18.10;77.80;;;;;;5068639;28;20089;-59
2022/11/06 03:59:34;;;;;;;57.10;15.48;;;18.10;45.60;;;;;;5078206;28;20032;-62
2022/11/06 04:02:02;;;;;;;64.60;16.88;;;18.50;79.50;;;;;;5067659;28;20033;-61
2022/11/06 04:04:36;;;;;;;55.80;15.45;;;17.90;52.10;;;;;;5068872;28;20448;-56
2022/11/06 04:07:13;;;;;;;62.58;15.30;;;17.70;47.30;;;;;;5067928;28;20141;-62
2022/11/06 04:15:17;;;;;;;86.43;21.10;;;18.00;44.40;;;;;;5091160;27;20038;-61
2022/11/06 04:17:43;;;;;;;86.95;23.80;;;;;;;;;;5111130;27;20019;-62
2022/11/06 04:21:20;;;;;;;70.22;23.75;;;18.00;52.80;;;;;;5111099;27;20024;-61
2022/11/06 04:23:21;;;;;;;67.63;22.38;;;;;;;;;;5109165;27;20404;-61
2022/11/06 04:29:04;;;;;;;78.45;22.70;;;17.60;51.40;;;;;;5118698;27;20092;-57
2022/11/06 04:31:53;;;;;;;64.32;19.20;;;17.70;51.70;;;;;;5114561;27;20028;-63
2022/11/06 04:34:45;;;;;;;65.70;17.58;;;17.90;83.80;;;;;;5110468;28;20055;-59
2022/11/06 04:37:21;;;;;;;70.18;16.20;;;17.70;50.40;;;;;;5103629;28;20183;-62
2022/11/06 04:39:48;;;;;;;65.53;15.15;;;;;;;;;;5115238;27;20117;-57
2022/11/06 04:42:48;;;;;;;71.05;16.80;;;17.80;54.70;;;;;;5118993;27;20031;-58
2022/11/06 04:45:27;;;;;;;77.05;18.92;;;17.80;43.00;;;;;;5109165;27;20020;-62
2022/11/06 04:47:54;;;;;;;79.05;16.58;;;;;;;;;;5110384;28;20103;-62
2022/11/06 04:50:23;;;;;;;59.95;14.18;;;17.30;48.20;;;;;;5109882;28;20068;-62
2022/11/06 04:52:50;;;;;;;65.95;13.10;;;17.80;41.90;;;;;;5110294;28;20557;-62
2022/11/06 04:55:17;;;;;;;58.13;14.73;;;17.50;44.20;;;;;;5108358;28;20170;-61
2022/11/06 04:57:43;;;;;;;68.75;13.43;;;17.70;47.70;;;;;;5110180;28;20076;-58
2022/11/06 05:00:11;;;;;;;;;;;17.40;42.40;;;;;;5110218;28;20072;-61
2022/11/06 05:02:38;;;;;;;66.13;13.40;;;;;;;;;;5109596;28;20348;-62
2022/11/06 05:05:05;;;;;;;58.03;13.77;;;17.40;50.40;;;;;;5109313;28;20015;-62
2022/11/06 05:07:31;;;;;;;55.38;14.20;;;17.20;87.20;;;;;;5109893;28;20479;-56
2022/11/06 05:09:57;;;;;;;;;;;17.30;54.20;;;;;;5110058;28;20502;-59
2022/11/06 05:12:23;;;;;;;63.13;18.92;;;;;;;;;;5109008;28;19929;-62
2022/11/06 05:14:50;;;;;;;59.10;17.92;;;16.50;84.70;;;;;;5113730;27;20024;-58
2022/11/06 05:17:16;;;;;;;73.70;18.45;;;17.10;86.00;;;;;;5110260;28;20131;-61
2022/11/06 05:19:42;;;;;;;;;;;17.20;55.30;;;;;;5109789;28;20069;-58
2022/11/06 05:24:56;;;;;;;67.55;16.15;;;17.10;70.00;;;;;;5113241;27;20094;-58
2022/11/06 05:27:22;;;;;;;74.32;16.45;;;;;;;;;;5108878;28;20032;-62
2022/11/06 05:29:49;;;;;;;79.70;19.75;;;;;;;;;;5109735;28;20062;-62
2022/11/06 05:32:15;;;;;;;68.40;18.67;;;;;;;;;;5109188;28;20502;-58
2022/11/06 05:34:42;;;;;;;67.97;18.30;;;;;;;;;;5109749;28;20024;-58
2022/11/06 05:37:08;;;;;;;68.90;18.33;;;16.80;46.90;;;;;;5109183;28;20024;-56
2022/11/06 05:39:34;;;;;;;;;;;16.70;45.10;;;;;;5110843;28;20075;-62
2022/11/06 05:42:01;;;;;;;66.50;17.67;;;;;;;;;;5108764;28;20054;-58
2022/11/06 05:44:27;;;;;;;90.82;18.75;;;;;;;;;;5109282;28;20439;-57
2022/11/06 05:46:54;;;;;;;69.30;18.63;;;16.20;63.70;;;;;;5114724;28;20039;-58
2022/11/06 05:49:20;;;;;;;;;;;16.30;59.80;;;;;;5110306;27;20020;-56
2022/11/06 05:51:46;;;;;;;66.47;17.55;;;16.60;60.00;;;;;;5109298;28;19915;-62
2022/11/06 05:54:13;;;;;;;71.32;19.85;;;16.60;45.70;;;;;;5111996;28;20596;-61
2022/11/06 05:56:40;;;;;;;79.35;19.42;;;;;;;;;;5110743;28;20079;-60
2022/11/06 05:59:06;;;;;;;60.13;17.80;;;16.70;86.50;;;;;;5109962;28;20501;-61
2022/11/06 06:01:33;;;;;;;82.38;19.85;;;16.40;78.40;;;;;;5108501;28;20103;-61
2022/11/06 06:03:59;;;;;;;;;;;16.40;53.00;;;;;;5109482;28;20208;-61
2022/11/06 06:06:26;;;;;;;92.72;21.42;;;16.50;77.10;;;;;;5108695;28;20049;-58
2022/11/06 06:08:52;;;;;;;72.65;18.40;;;;;;;;;;5109115;28;20067;-56
2022/11/06 06:11:18;;;;;;;74.47;19.05;;;16.00;66.40;;;;;;5108327;28;20550;-57
2022/11/06 06:13:45;;;;;;;;;;;16.30;46.80;;;;;;5108673;28;20091;-62
2022/11/06 06:16:11;;;;;;;76.15;21.10;;;;;;;;;;5111214;28;20055;-61
2022/11/06 06:18:38;;;;;;;74.97;19.92;;;;;;;;;;5109064;28;20087;-56
2022/11/06 06:21:04;;;;;;;75.75;18.38;;;16.00;91.90;;;;;;5109264;28;20514;-62
2022/11/06 06:23:31;;;;;;;83.22;21.10;;;;;;;;;;5108195;28;20131;-57
2022/11/06 06:25:57;;;;;;;79.35;19.88;;;16.30;62.00;;;;;;5110569;28;20032;-57
2022/11/06 06:28:23;;;;;;;;;;;16.10;61.00;;;;;;5112059;28;20509;-61
2022/11/06 06:30:50;;;;;;;91.68;21.35;;;15.90;63.90;;;;;;5112192;28;20297;-56
2022/11/06 06:33:16;;;;;;;;;;;16.00;47.90;;;;;;5113790;27;20027;-61
2022/11/06 06:35:42;;;;;;;78.93;20.83;;;15.80;90.30;;;;;;5111942;28;19963;-57
2022/11/06 06:38:08;;;;;;;98.95;22.73;;;15.80;78.40;;;;;;5112222;27;20502;-61
2022/11/06 06:40:34;;;;;;;;;;;15.90;48.50;;;;;;5113139;28;20068;-63
2022/11/06 06:43:01;;;;;;;75.22;22.10;;;15.70;60.50;;;;;;5110399;27;20356;-58
2022/11/06 06:45:27;;;;;;;;;;;15.80;48.70;;;;;;5112599;28;20143;-63
2022/11/06 06:47:53;;;;;;;88.13;21.42;;;;;;;;;;5111716;27;19963;-62
2022/11/06 06:50:20;;;;;;;83.90;24.10;;;;;;;;;;5116705;27;20023;-61
2022/11/06 06:52:46;;;;;;;82.05;23.17;;;15.60;81.10;;;;;;5130218;27;20068;-59
2022/11/06 06:55:12;;;;;;;;;;;15.80;56.70;;;;;;5113605;27;20041;-61
2022/11/06 06:57:39;;;;;;;100.00;23.52;;;15.80;90.60;;;;;;5125645;27;19981;-61
2022/11/06 07:00:06;;;;;;;95.07;24.30;;;15.70;91.00;;;;;;5116627;27;20055;-59
2022/11/06 07:02:32;;;;;;;81.00;22.92;;;15.60;90.30;;;;;;5111482;27;20060;-57
2022/11/06 07:04:58;;;;;;;;;;;15.60;56.60;;;;;;5118664;27;20048;-56
2022/11/06 07:07:25;;;;;;;89.85;23.20;;;;;;;;;;5111797;28;19982;-61
2022/11/06 07:09:51;;;;;;;97.65;22.55;;;16.00;89.70;;;;;;5112115;27;20040;-58
2022/11/06 07:12:17;;;;;;;;;;;15.40;55.70;;;;;;5113924;27;20085;-58
2022/11/06 07:14:43;;;;;;;92.35;22.45;;;16.00;53.00;;;;;;5132241;27;19954;-61
2022/11/06 07:17:09;;;;;;;;;;;15.60;55.00;;;;;;5114807;27;20047;-60
2022/11/06 07:19:36;;;;;;;105.30;23.17;;;15.90;89.50;;;;;;5112347;28;19968;-61
2022/11/06 07:22:02;;;;;;;;;;;15.50;53.90;;;;;;5113143;27;20087;-61
2022/11/06 07:24:28;;;;;;;94.43;22.10;;;15.50;90.60;;;;;;5112027;27;20416;-57
2022/11/06 07:26:54;;;;;;;;;;;15.60;61.80;;;;;;5111128;27;20404;-57
2022/11/06 07:29:21;;;;;;;98.53;21.58;;;;;;;;;;5110173;28;19922;-60
2022/11/06 07:31:47;;;;;;;79.95;19.77;;;16.00;89.10;;;;;;5111559;28;20399;-56
2022/11/06 07:34:13;;;;;;;;;;;15.50;59.50;;;;;;5111137;28;20052;-61
2022/11/06 07:36:40;;;;;;;76.95;22.58;;;;;;;;;;5123168;27;20402;-60
2022/11/06 07:39:06;;;;;;;96.68;23.40;;;;;;;;;;5117757;27;20050;-58
2022/11/06 07:41:33;;;;;;;98.32;24.05;;;14.80;91.20;;;;;;5110933;27;20085;-59
2022/11/06 07:43:59;;;;;;;;;;;15.30;57.10;;;;;;5111896;27;20054;-62
2022/11/06 07:46:25;;;;;;;96.65;21.05;;;15.20;61.50;;;;;;5110515;27;19944;-60
2022/11/06 07:48:51;;;;;;;;;;;15.20;61.60;;;;;;5111827;27;20390;-58
2022/11/06 07:51:17;;;;;;;81.15;18.77;;;15.10;77.10;;;;;;5121213;27;19925;-57
2022/11/06 07:53:43;;;;;;;;;;;14.90;60.40;;;;;;5111634;27;20057;-58
2022/11/06 07:56:10;;;;;;;83.40;20.02;;;15.70;93.90;;;;;;5114195;27;19932;-58
2022/11/06 07:58:37;;;;;;;;;;;16.00;64.80;;;;;;5110103;27;20020;-58
2022/11/06 08:01:04;;;;;;;92.68;18.77;;;16.20;92.90;;;;;;5110469;28;20318;-61
2022/11/06 08:03:30;;;;;;;76.93;19.25;;;;;;;;;;5118509;27;20024;-59
2022/11/06 08:06:03;;;;;;;80.13;19.05;;;15.80;49.30;;;;;;5125213;27;20056;-58
2022/11/06 08:08:30;;;;;;;87.63;20.83;;;;;;;;;;5111422;28;20032;-58
2022/11/06 08:11:04;;;;;;;77.38;18.75;;;16.30;63.40;;;;;;5111691;28;20053;-59
2022/11/06 08:13:34;;;;;;;76.20;20.15;;;;;;;;;;5109628;27;20023;-61
2022/11/06 08:16:04;;;;;;;85.05;18.02;;;;;;;;;;5110956;28;20031;-56
2022/11/06 08:18:31;;;;;;;71.00;18.60;;;16.40;88.90;;;;;;5109901;27;20712;-62
2022/11/06 08:20:57;;;;;;;80.60;19.75;;;16.70;67.40;;;;;;5114585;27;20047;-59
2022/11/06 08:23:24;;;;;;;64.65;18.42;;;;;;;;;;5125910;27;20189;-59
2022/11/06 08:25:56;;;;;;;71.55;21.48;;;16.10;87.10;;;;;;5123747;27;20135;-58
2022/11/06 08:28:24;;;;;;;75.93;20.17;;;16.10;65.00;;;;;;5108632;28;20058;-62
2022/11/06 08:30:50;;;;;;;83.65;20.35;;;;;;;;;;5114694;27;20112;-59
2022/11/06 08:33:18;;;;;;;77.85;22.73;;;16.20;90.20;;;;;;5120704;27;20049;-63
2022/11/06 08:35:44;;;;;;;69.78;22.67;;;15.80;90.50;;;;;;5110026;27;20092;-63
2022/11/06 08:38:10;;;;;;;;;;;16.30;56.50;;;;;;5110359;28;20040;-59
2022/11/06 08:40:40;;;;;;;85.97;23.85;;;;;;;;;;5110680;27;19979;-60
2022/11/06 08:43:09;;;;;;;79.78;22.33;;;15.90;90.00;;;;;;5109326;28;20617;-62
2022/11/06 08:45:40;;;;;;;74.20;22.00;;;16.10;50.00;;;;;;5110029;27;20043;-59
2022/11/06 08:48:08;;;;;;;72.95;21.13;;;16.20;56.30;;;;;;5108527;28;20057;-61
2022/11/06 08:50:38;;;;;;;93.28;22.05;;;16.20;88.80;;;;;;5110717;28;20042;-60
2022/11/06 08:53:05;;;;;;;79.78;20.30;;;;;;;;;;5110367;27;20050;-62
2022/11/06 08:55:34;;;;;;;79.88;19.65;;;15.70;89.50;;;;;;5110074;28;20070;-59
2022/11/06 08:58:01;;;;;;;89.70;20.92;;;16.50;90.60;;;;;;5109795;28;20050;-59
2022/11/06 09:00:28;;;;;;;101.47;21.63;;;16.00;53.20;;;;;;5108640;28;20061;-60
2022/11/06 09:03:01;;;;;;;88.07;20.75;;;15.70;90.80;;;;;;5109973;28;20057;-60
2022/11/06 09:05:30;;;;;;;91.22;19.33;;;16.10;59.90;;;;;;5119457;27;20059;-62
2022/11/06 09:07:59;;;;;;;75.22;19.13;;;15.60;91.30;;;;;;5110414;28;20060;-59
2022/11/06 09:10:27;;;;;;;98.25;34.83;;;15.50;54.80;;;;;;5123825;27;20061;-62
2022/11/06 09:12:54;;;;;;;80.97;18.63;;;15.30;94.00;;;;;;5109130;28;20043;-57
2022/11/06 09:15:21;;;;;;;63.85;18.15;;;15.40;92.60;;;;;;5109713;28;20064;-59
2022/11/06 09:17:49;;;;;;;90.60;19.33;;;14.80;91.70;;;;;;5109254;28;20053;-62
2022/11/06 09:20:17;;;;;;;69.03;18.75;;;15.70;87.30;;;;;;5108529;28;20066;-62
2022/11/06 09:22:45;;;;;;;70.88;18.98;;;15.60;54.80;;;;;;5114809;27;20105;-60
2022/11/06 09:25:12;;;;;;;74.93;18.42;;;15.80;91.80;;;;;;5115349;28;20049;-57
2022/11/06 09:27:43;;;;;;;62.55;20.02;;;15.40;51.60;;;;;;5107923;27;20042;-62
2022/11/06 09:30:11;;;;;;;78.47;22.10;;;15.10;90.40;;;;;;5109860;28;20526;-63
2022/11/06 09:32:38;;;;;;;71.95;21.50;;;14.80;82.70;;;;;;5116360;28;20064;-57
2022/11/06 09:35:05;;;;;;;72.60;19.13;;;15.30;91.00;;;;;;5109383;28;20074;-61
2022/11/06 09:37:31;;;;;;;58.15;18.67;;;14.80;90.90;;;;;;5111039;28;20053;-61
2022/11/06 09:39:58;;;;;;;77.53;20.20;;;15.00;91.50;;;;;;5108619;28;20065;-61
2022/11/06 09:42:24;;;;;;;;;;;14.80;53.40;;;;;;5109871;28;20075;-59
2022/11/06 09:44:51;;;;;;;70.78;19.67;;;;;;;;;;5116567;28;19983;-62
2022/11/06 09:47:29;;;;;;;75.50;19.08;;;14.10;75.10;;;;;;5109528;28;20068;-58
2022/11/06 09:49:56;;;;;;;62.92;17.33;;;14.50;60.70;;;;;;5108560;28;20052;-60
2022/11/06 09:52:41;;;;;;;67.97;19.17;;;14.40;92.10;;;;;;5108541;28;20066;-61
2022/11/06 09:55:22;;;;;;;80.28;19.05;;;14.70;80.40;;;;;;5108370;28;20061;-57
2022/11/06 09:58:08;;;;;;;63.92;18.17;;;14.60;90.40;;;;;;5109317;28;20486;-62
2022/11/06 10:00:35;;;;;;;63.40;18.25;;;14.40;62.20;;;;;;5111041;28;20073;-61
2022/11/06 10:03:34;;;;;;;73.95;17.80;;;14.20;56.60;;;;;;5113830;28;20096;-57
2022/11/06 10:06:00;;;;;;;66.65;18.77;;;15.00;91.80;;;;;;5111743;28;20074;-62
2022/11/06 10:08:27;;;;;;;;;;;14.30;79.70;;;;;;5114164;28;20040;-62
2022/11/06 10:11:12;;;;;;;53.22;18.15;;;;;;;;;;5112773;27;19908;-63
2022/11/06 10:13:38;;;;;;;74.80;19.67;;;;;;;;;;5113172;28;20171;-61
2022/11/06 10:16:19;;;;;;;;;;;14.40;70.80;;;;;;5113042;27;20052;-63
2022/11/06 10:18:59;;;;;;;57.35;19.30;;;14.40;58.00;;;;;;5112888;27;20019;-63
2022/11/06 10:21:36;;;;;;;70.93;20.30;;;13.60;68.50;;;;;;5120015;27;20134;-62
2022/11/06 10:24:14;;;;;;;86.57;19.77;;;13.90;91.80;;;;;;5109918;28;20086;-59
2022/11/06 10:26:47;;;;;;;70.70;19.42;;;14.50;54.50;;;;;;5112276;28;20424;-57
2022/11/06 10:29:29;;;;;;;102.85;21.67;;;14.20;54.30;;;;;;5112441;28;20066;-57
2022/11/06 10:31:56;;;;;;;99.22;21.48;;;14.10;90.00;;;;;;5111759;28;21948;-56
2022/11/06 10:34:28;;;;;;;;;;;14.00;54.90;;;;;;5112927;27;20115;-61
2022/11/06 10:37:00;;;;;;;81.40;20.05;;;13.90;55.20;;;;;;5112950;28;20042;-57
2022/11/06 10:39:34;;;;;;;73.78;20.42;;;13.50;88.40;;;;;;5112786;28;20088;-57
2022/11/06 10:42:12;;;;;;;78.47;20.15;;;14.30;90.30;;;;;;5111927;28;20505;-61
2022/11/06 10:44:59;;;;;;;76.18;18.80;;;13.10;55.20;;;;;;5112797;27;20095;-57
2022/11/06 10:47:31;;;;;;;88.15;21.13;;;13.90;55.60;;;;;;5111495;28;20067;-59
2022/11/06 10:50:01;;;;;;;88.30;20.80;;;13.80;55.60;;;;;;5112269;27;20515;-61
2022/11/06 10:53:01;;;;;;;68.28;19.98;;;13.50;90.80;;;;;;5109747;28;20428;-61
2022/11/06 10:55:55;;;;;;;73.80;19.42;;;14.20;90.60;;;;;;5112309;27;20100;-56
2022/11/06 10:58:27;;;;;;;69.68;19.95;;;13.80;56.60;;;;;;5111507;27;20059;-61
2022/11/06 11:01:00;;;;;;;74.07;19.98;;;14.20;91.00;;;;;;5112356;28;20068;-61
2022/11/06 11:03:31;;;;;;;66.68;20.08;;;13.60;56.60;;;;;;5111021;28;20123;-58
2022/11/06 11:05:58;;;;;;;81.53;21.38;;;13.80;95.80;;;;;;5111904;28;20092;-62
2022/11/06 11:08:31;;;;;;;76.38;20.60;;;14.30;92.30;;;;;;5112364;27;20538;-58
2022/11/06 11:11:27;;;;;;;83.75;20.92;;;13.60;78.00;;;;;;5111097;27;20165;-60
2022/11/06 11:13:56;;;;;;;65.90;21.20;;;13.70;57.30;;;;;;5069207;28;20077;-62
2022/11/06 11:16:36;;;;;;;78.10;21.48;;;13.40;86.10;;;;;;5068362;28;20088;-62
2022/11/06 11:19:26;;;;;;;81.72;21.30;;;13.50;91.30;;;;;;5069237;28;20182;-61
2022/11/06 11:22:05;;;;;;;94.03;22.15;;;13.70;91.30;;;;;;5060848;28;20136;-61
2022/11/06 11:24:32;;;;;;;95.55;24.38;;;13.70;91.20;;;;;;5068712;28;20100;-56
2022/11/06 11:27:06;;;;;;;85.25;22.10;;;13.50;91.20;;;;;;5067998;28;20387;-61
2022/11/06 11:29:44;;;;;;;81.00;22.05;;;12.50;58.50;;;;;;5068716;28;20497;-62
2022/11/06 11:32:14;;;;;;;83.85;21.25;;;14.10;78.90;;;;;;5068463;28;20551;-61
2022/11/06 11:34:59;;;;;;;98.65;22.67;;;13.60;58.10;;;;;;5069204;28;20088;-62
2022/11/06 11:37:31;;;;;;;78.57;20.65;;;13.70;60.80;;;;;;5067904;28;20076;-63
2022/11/06 11:40:40;;;;;;;104.57;23.20;;;13.60;58.20;;;;;;5068936;28;20056;-63
2022/11/06 11:43:27;;;;;;;77.43;21.13;;;13.60;92.60;;;;;;5067693;28;20110;-61
2022/11/06 11:46:09;;;;;;;;;;;13.60;58.70;;;;;;5069130;28;20103;-57
2022/11/06 11:48:44;;;;;;;98.38;23.27;;;13.50;92.00;;;;;;5068100;28;20248;-57
2022/11/06 11:51:23;;;;;;;71.60;21.77;;;16.00;60.50;;;;;;5106250;27;20075;-61
2022/11/06 11:53:51;;;;;;;76.47;22.27;;;13.50;92.60;;;;;;5110495;28;20091;-56
2022/11/06 11:56:21;;;;;;;81.10;22.42;;;13.40;60.10;;;;;;5110041;28;20067;-59
2022/11/06 11:58:54;;;;;;;81.70;20.95;;;12.50;68.20;;;;;;5110181;28;20417;-59
2022/11/06 12:01:34;;;;;;;78.22;23.30;;;13.80;94.90;;;;;;5110936;27;20586;-62
2022/11/06 12:04:06;;;;;;;78.15;23.60;;;13.30;86.20;;;;;;5110026;27;20190;-59
2022/11/06 12:06:32;;;;;;;98.10;23.23;;;13.00;94.10;;;;;;5125080;27;20071;-62
2022/11/06 12:08:59;;;;;;;77.50;23.77;;;13.20;92.90;;;;;;5111626;28;20098;-62
2022/11/06 12:11:27;;;;;;;;;;;13.30;61.70;;;;;;5110193;28;21589;-62
2022/11/06 12:14:15;;;;;;;89.25;27.73;;;13.50;94.50;;;;;;5123511;27;19966;-62
2022/11/06 12:16:54;;;;;;;95.82;28.63;;;13.40;60.90;;;;;;5113280;27;20074;-62
2022/11/06 12:19:25;;;;;;;98.30;29.17;;;13.40;93.30;;;;;;5110157;27;20078;-62
2022/11/06 12:21:57;;;;;;;98.47;29.80;;;13.30;83.20;;;;;;5123169;27;20571;-61
2022/11/06 12:24:47;;;;;;;98.65;30.65;;;13.30;61.70;;;;;;5118960;27;20467;-62
2022/11/06 12:27:37;;;;;;;109.28;31.95;;;13.10;93.50;;;;;;5105172;28;20116;-62
2022/11/06 12:30:17;;;;;;;98.68;30.17;;;12.80;62.80;;;;;;5109818;28;20092;-62
2022/11/06 12:32:55;;;;;;;84.78;28.52;;;13.20;61.10;;;;;;5110503;28;20090;-62
2022/11/06 12:35:28;;;;;;;105.05;31.45;;;13.10;61.60;;;;;;5109331;28;20088;-62
2022/11/06 12:38:23;;;;;;;100.32;29.20;;;13.20;61.80;;;;;;5116326;27;20106;-62
2022/11/06 12:40:59;;;;;;;110.80;29.05;;;;;;;;;;5108944;27;20133;-61
2022/11/06 12:43:40;;;;;;;90.10;26.98;;;13.30;93.60;;;;;;5110035;28;20092;-62
2022/11/06 12:46:44;;;;;;;81.68;26.77;;;13.50;93.50;;;;;;5108788;28;20065;-57
2022/11/06 12:49:16;;;;;;;72.32;24.85;;;;;;;;;;5113214;27;20084;-56
2022/11/06 12:52:01;;;;;;;88.05;26.27;;;13.50;95.90;;;;;;5108559;27;20073;-57
2022/11/06 12:54:39;;;;;;;84.93;26.15;;;13.30;94.10;;;;;;5109697;28;20200;-63
2022/11/06 12:57:32;;;;;;;98.00;27.17;;;13.20;62.80;;;;;;5108947;28;20101;-63
2022/11/06 12:59:59;;;;;;;76.15;27.58;;;;;;;;;;5109034;28;20082;-63
2022/11/06 13:02:47;;;;;;;94.10;26.08;;;13.00;86.10;;;;;;5109378;27;20171;-61
2022/11/06 13:05:19;;;;;;;78.97;26.00;;;13.30;90.70;;;;;;5109312;28;20075;-61
2022/11/06 13:08:09;;;;;;;86.05;26.20;;;13.20;90.40;;;;;;5108513;28;20084;-56
2022/11/06 13:10:51;;;;;;;90.50;25.77;;;13.30;91.70;;;;;;5108964;28;20067;-59
2022/11/06 13:13:30;;;;;;;102.47;27.70;;;13.10;73.80;;;;;;5128374;27;20077;-56
2022/11/06 13:16:03;;;;;;;94.35;27.77;;;12.90;64.90;;;;;;5109624;27;20087;-60
2022/11/06 13:18:30;;;;;;;89.55;27.33;;;;;;;;;;5108473;28;20087;-61
2022/11/06 13:21:03;;;;;;;98.82;27.63;;;12.70;90.90;;;;;;5111464;27;20133;-57
2022/11/06 13:23:41;;;;;;;97.68;28.98;;;12.70;97.70;;;;;;5116253;27;20089;-57
2022/11/06 13:26:46;;;;;;;90.20;27.52;;;12.80;68.40;;;;;;5108624;28;20051;-58
2022/11/06 13:29:16;;;;;;;90.05;26.73;;;12.60;98.30;;;;;;5066537;28;20055;-56